Time;durP1;ratioP1;P1;durP2;ratioP2;P2;SDS_P1;SDS_P2;PMS_P1;PMS_P2;Temp;Humidity;BMP_temperature;BMP_pressure;BME280_temperature;BME280_humidity;BME280_pressure;Samples;Min_cycle;Max_cycle;Signal;HPM_P1;HPM_P2
2022/12/10 00:01:30;;;;;;;26.33;8.55;;;;;;;;;;5064714;28;20037;-86
2022/12/10 00:03:56;;;;;;;23.27;9.93;;;;;;;;;;5059301;28;20156;-86
2022/12/10 00:06:27;;;;;;;15.98;8.38;;;;;;;;;;5054533;28;20082;-85
2022/12/10 00:08:53;;;;;;;18.02;9.52;;;;;;;;;;5061104;28;20864;-86
2022/12/10 00:11:19;;;;;;;17.05;10.60;;;;;;;;;;5061805;28;20545;-87
2022/12/10 00:13:46;;;;;;;21.38;9.95;;;;;;;;;;5057081;28;20500;-86
2022/12/10 00:16:14;;;;;;;15.27;9.52;;;;;;;;;;5060482;28;20485;-85
2022/12/10 00:18:40;;;;;;;17.40;9.88;;;;;;;;;;5058254;28;20025;-86
2022/12/10 00:21:11;;;;;;;19.83;8.23;;;0.60;99.90;;;;;;5058560;28;20067;-86
2022/12/10 00:23:37;;;;;;;14.85;8.13;;;;;;;;;;5058380;28;20059;-86
2022/12/10 00:26:09;;;;;;;15.93;8.15;;;;;;;;;;5057475;28;20090;-86
2022/12/10 00:28:35;;;;;;;18.73;9.05;;;;;;;;;;5060891;28;20505;-85
2022/12/10 00:31:05;;;;;;;21.73;9.68;;;;;;;;;;5055748;28;20158;-85
2022/12/10 00:33:31;;;;;;;18.40;10.00;;;;;;;;;;5062000;28;20120;-84
2022/12/10 00:36:01;;;;;;;18.65;10.38;;;;;;;;;;5059168;28;20027;-85
2022/12/10 00:38:27;;;;;;;18.13;9.00;;;;;;;;;;5054585;28;20603;-86
2022/12/10 00:40:53;;;;;;;15.43;7.90;;;;;;;;;;5062210;28;20111;-85
2022/12/10 00:43:19;;;;;;;17.20;7.97;;;;;;;;;;5054473;28;20020;-85
2022/12/10 00:45:45;;;;;;;19.73;9.18;;;;;;;;;;5059849;28;20025;-86
2022/12/10 00:48:11;;;;;;;19.42;8.20;;;;;;;;;;5060203;28;20036;-86
2022/12/10 00:50:37;;;;;;;12.60;8.07;;;;;;;;;;5058464;28;20055;-85
2022/12/10 00:53:03;;;;;;;13.85;8.57;;;;;;;;;;5058107;28;20082;-86
2022/12/10 00:55:29;;;;;;;14.80;7.50;;;;;;;;;;5056056;28;20027;-86
2022/12/10 00:57:55;;;;;;;22.30;12.63;;;;;;;;;;5061417;28;20664;-84
2022/12/10 01:00:21;;;;;;;24.80;11.07;;;;;;;;;;5057160;28;20051;-86
2022/12/10 01:02:46;;;;;;;18.00;8.98;;;;;;;;;;5058503;28;20028;-85
2022/12/10 01:05:12;;;;;;;16.17;9.85;;;;;;;;;;5060829;28;20021;-85
2022/12/10 01:07:39;;;;;;;21.48;9.80;;;;;;;;;;5062683;28;20044;-84
2022/12/10 01:10:05;;;;;;;20.05;10.05;;;;;;;;;;5063799;28;20116;-85
2022/12/10 01:12:31;;;;;;;14.02;8.45;;;;;;;;;;5060324;28;20040;-86
2022/12/10 01:14:57;;;;;;;21.38;10.70;;;;;;;;;;5068335;28;20040;-86
2022/12/10 01:17:23;;;;;;;22.23;10.82;;;;;;;;;;5065511;28;20586;-84
2022/12/10 01:19:49;;;;;;;19.17;10.25;;;;;;;;;;5062142;28;20380;-84
2022/12/10 01:22:15;;;;;;;34.50;13.57;;;;;;;;;;5060520;28;20036;-84
2022/12/10 01:24:41;;;;;;;26.85;12.82;;;;;;;;;;5066365;28;20026;-85
2022/12/10 01:27:07;;;;;;;25.50;10.75;;;;;;;;;;5058490;28;20669;-86
2022/12/10 01:29:33;;;;;;;16.85;8.77;;;;;;;;;;5067015;28;20024;-84
2022/12/10 01:31:59;;;;;;;18.63;9.32;;;;;;;;;;5060846;28;20120;-86
2022/12/10 01:34:25;;;;;;;19.63;9.85;;;;;;;;;;5069116;28;20040;-85
2022/12/10 01:36:52;;;;;;;27.42;9.85;;;;;;;;;;5060892;28;20120;-85
2022/12/10 01:39:19;;;;;;;18.70;10.35;;;;;;;;;;5060735;28;20032;-84
2022/12/10 01:42:00;;;;;;;19.00;9.40;;;0.60;99.90;;;;;;5061619;28;20051;-87
2022/12/10 01:44:26;;;;;;;19.95;8.45;;;;;;;;;;5065525;28;20408;-85
2022/12/10 01:46:53;;;;;;;18.67;8.35;;;;;;;;;;5060224;28;20044;-84
2022/12/10 01:49:21;;;;;;;17.58;8.93;;;;;;;;;;5063556;28;20564;-86
2022/12/10 01:51:48;;;;;;;15.80;7.45;;;;;;;;;;5063754;28;20032;-85
2022/12/10 01:54:30;;;;;;;18.40;8.65;;;0.50;99.90;;;;;;5066667;28;20032;-85
2022/12/10 01:57:01;;;;;;;24.20;10.35;;;0.60;99.90;;;;;;5061269;28;20035;-86
2022/12/10 01:59:28;;;;;;;19.05;9.77;;;0.70;99.90;;;;;;5062074;28;20032;-85
2022/12/10 02:02:00;;;;;;;15.52;9.98;;;;;;;;;;5061204;28;20055;-86
2022/12/10 02:04:35;;;;;;;19.60;9.77;;;;;;;;;;5063474;28;20421;-88
2022/12/10 02:07:02;;;;;;;13.15;8.70;;;;;;;;;;5062952;28;20040;-86
2022/12/10 02:09:35;;;;;;;16.08;7.60;;;;;;;;;;5065522;28;20020;-86
2022/12/10 02:12:13;;;;;;;18.58;9.45;;;;;;;;;;5060963;28;20422;-85
2022/12/10 02:14:48;;;;;;;19.55;8.00;;;;;;;;;;5063187;28;20086;-86
2022/12/10 02:17:19;;;;;;;13.45;7.78;;;;;;;;;;5061182;28;21519;-85
2022/12/10 02:19:54;;;;;;;17.20;8.13;;;;;;;;;;5060926;28;20041;-86
2022/12/10 02:22:21;;;;;;;18.10;9.95;;;;;;;;;;5059875;28;20668;-87
2022/12/10 02:24:49;;;;;;;17.38;8.57;;;;;;;;;;5060208;28;20039;-85
2022/12/10 02:27:24;;;;;;;12.75;7.95;;;;;;;;;;5061744;28;20042;-85
2022/12/10 02:29:52;;;;;;;18.05;9.90;;;0.80;99.90;;;;;;5061554;28;20024;-86
2022/12/10 02:32:20;;;;;;;18.80;8.30;;;;;;;;;;5062483;28;20028;-86
2022/12/10 02:34:48;;;;;;;17.48;8.73;;;;;;;;;;5060456;28;20028;-86
2022/12/10 02:37:23;;;;;;;16.50;7.82;;;;;;;;;;5068348;28;20562;-84
2022/12/10 02:39:50;;;;;;;14.40;7.20;;;;;;;;;;5061814;28;20032;-84
2022/12/10 02:42:17;;;;;;;17.52;8.88;;;;;;;;;;5061277;28;20137;-84
2022/12/10 02:44:43;;;;;;;11.35;6.32;;;;;;;;;;5060617;28;20535;-86
2022/12/10 02:47:11;;;;;;;19.45;8.32;;;;;;;;;;5066038;28;20036;-87
2022/12/10 02:49:37;;;;;;;15.45;8.07;;;;;;;;;;5064273;28;20104;-87
2022/12/10 02:52:12;;;;;;;19.80;9.70;;;0.70;99.90;;;;;;5064630;28;20481;-86
2022/12/10 02:54:48;;;;;;;16.48;7.60;;;;;;;;;;5061454;28;21470;-86
2022/12/10 02:57:33;;;;;;;15.07;8.45;;;;;;;;;;5062238;28;20036;-86
2022/12/10 03:00:06;;;;;;;15.98;7.47;;;;;;;;;;5062552;28;20626;-87
2022/12/10 03:02:41;;;;;;;14.82;8.07;;;;;;;;;;5062703;28;20522;-86
2022/12/10 03:05:07;;;;;;;18.27;9.00;;;;;;;;;;5069582;28;20028;-87
2022/12/10 03:07:36;;;;;;;16.33;8.60;;;;;;;;;;5056279;28;20036;-87
2022/12/10 03:10:10;;;;;;;14.60;7.97;;;;;;;;;;5076508;28;20017;-88
2022/12/10 03:12:38;;;;;;;13.50;7.18;;;;;;;;;;5084058;28;20039;-87
2022/12/10 03:15:09;;;;;;;20.27;8.57;;;0.50;99.90;;;;;;5091010;28;20039;-88
2022/12/10 03:17:36;;;;;;;19.50;9.20;;;;;;;;;;5083774;28;20028;-85
2022/12/10 03:20:03;;;;;;;22.33;9.95;;;;;;;;;;5062013;28;20109;-84
2022/12/10 03:22:31;;;;;;;16.63;7.90;;;0.70;99.90;;;;;;5059298;28;20554;-85
2022/12/10 03:24:58;;;;;;;17.80;8.50;;;;;;;;;;5061718;28;20488;-85
2022/12/10 03:27:24;;;;;;;20.35;9.25;;;;;;;;;;5058424;28;20649;-85
2022/12/10 03:29:52;;;;;;;17.75;8.90;;;;;;;;;;5062094;28;20573;-88
2022/12/10 03:32:20;;;;;;;18.38;8.90;;;0.70;99.90;;;;;;5061396;28;20078;-85
2022/12/10 03:34:47;;;;;;;21.80;9.18;;;;;;;;;;5059534;28;20048;-85
2022/12/10 03:37:13;;;;;;;16.25;9.38;;;;;;;;;;5060356;28;20036;-85
2022/12/10 03:39:40;;;;;;;16.95;8.27;;;;;;;;;;5061541;28;20032;-85
2022/12/10 03:42:06;;;;;;;15.77;8.60;;;;;;;;;;5058290;28;20077;-88
2022/12/10 03:44:37;;;;;;;19.98;9.25;;;;;;;;;;5060788;28;20105;-86
2022/12/10 03:47:04;;;;;;;16.77;8.13;;;;;;;;;;5059187;28;20037;-84
2022/12/10 03:49:30;;;;;;;16.27;9.15;;;;;;;;;;5057250;28;20112;-85
2022/12/10 03:51:56;;;;;;;14.18;6.72;;;;;;;;;;5060658;28;20111;-85
2022/12/10 03:54:22;;;;;;;19.02;9.43;;;;;;;;;;5058184;28;20026;-85
2022/12/10 03:56:48;;;;;;;21.60;10.48;;;;;;;;;;5056057;28;20036;-85
2022/12/10 03:59:14;;;;;;;16.55;7.85;;;;;;;;;;5055688;28;20029;-84
2022/12/10 04:01:42;;;;;;;16.85;9.45;;;;;;;;;;5057468;28;20123;-87
2022/12/10 04:04:08;;;;;;;18.00;9.48;;;;;;;;;;5056064;28;20469;-83
2022/12/10 04:06:34;;;;;;;18.75;8.27;;;;;;;;;;5060631;28;20028;-85
2022/12/10 04:09:00;;;;;;;18.85;9.27;;;;;;;;;;5055157;28;20078;-84
2022/12/10 04:11:26;;;;;;;18.38;8.95;;;;;;;;;;5060809;28;20655;-84
2022/12/10 04:16:38;;;;;;;20.38;10.65;;;;;;;;;;5057538;28;20048;-85
2022/12/10 04:19:12;;;;;;;19.20;9.63;;;0.60;99.90;;;;;;5057926;28;20047;-84
2022/12/10 04:27:24;;;;;;;21.38;10.20;;;;;;;;;;5061955;28;20419;-84
2022/12/10 04:29:50;;;;;;;17.27;8.18;;;;;;;;;;5056478;28;20031;-85
2022/12/10 04:32:16;;;;;;;22.70;9.57;;;;;;;;;;5058932;28;20046;-84
2022/12/10 04:34:42;;;;;;;17.30;8.80;;;;;;;;;;5059749;28;20102;-84
2022/12/10 04:37:08;;;;;;;21.40;10.30;;;;;;;;;;5061705;28;20024;-85
2022/12/10 04:39:34;;;;;;;19.02;10.73;;;;;;;;;;5060932;28;20104;-84
2022/12/10 04:42:01;;;;;;;14.73;8.45;;;;;;;;;;5059486;28;20033;-86
2022/12/10 04:44:27;;;;;;;19.40;8.43;;;;;;;;;;5068911;28;20032;-86
2022/12/10 04:46:53;;;;;;;20.73;9.75;;;;;;;;;;5064627;28;20040;-86
2022/12/10 04:49:19;;;;;;;21.55;10.18;;;;;;;;;;5070739;28;20027;-86
2022/12/10 04:51:45;;;;;;;16.45;8.98;;;;;;;;;;5063507;28;20031;-84
2022/12/10 04:54:11;;;;;;;21.73;10.00;;;;;;;;;;5055803;28;20025;-85
2022/12/10 04:56:37;;;;;;;15.38;9.55;;;;;;;;;;5061643;28;20082;-85
2022/12/10 04:59:04;;;;;;;15.55;9.45;;;;;;;;;;5067693;28;20029;-85
2022/12/10 05:01:30;;;;;;;16.50;9.77;;;;;;;;;;5065366;28;20047;-85
2022/12/10 05:03:59;;;;;;;19.98;8.35;;;;;;;;;;5063735;28;20072;-85
2022/12/10 05:06:25;;;;;;;19.55;9.50;;;;;;;;;;5063491;28;20032;-84
2022/12/10 05:08:50;;;;;;;22.88;9.63;;;;;;;;;;5067433;28;20046;-86
2022/12/10 05:11:17;;;;;;;19.48;9.65;;;;;;;;;;5068278;28;20021;-84
2022/12/10 05:13:44;;;;;;;20.23;9.90;;;;;;;;;;5064342;28;21844;-83
2022/12/10 05:16:11;;;;;;;15.88;8.82;;;;;;;;;;5066465;28;20151;-84
2022/12/10 05:18:37;;;;;;;26.15;11.70;;;;;;;;;;5060637;28;20795;-85
2022/12/10 05:21:05;;;;;;;21.00;9.35;;;;;;;;;;5065740;28;20029;-84
2022/12/10 05:23:31;;;;;;;16.20;7.75;;;;;;;;;;5060586;28;20384;-83
2022/12/10 05:26:00;;;;;;;20.55;8.90;;;;;;;;;;5063672;28;20063;-85
2022/12/10 05:28:26;;;;;;;20.17;8.52;;;;;;;;;;5067198;28;20152;-84
2022/12/10 05:30:52;;;;;;;21.20;10.82;;;;;;;;;;5063950;28;20025;-83
2022/12/10 05:33:18;;;;;;;15.90;9.02;;;;;;;;;;5060916;28;20086;-84
2022/12/10 05:35:51;;;;;;;16.40;9.35;;;;;;;;;;5067081;28;20060;-85
2022/12/10 05:38:17;;;;;;;17.40;8.68;;;;;;;;;;5063033;28;20055;-84
2022/12/10 05:40:43;;;;;;;18.20;9.15;;;;;;;;;;5058881;28;20061;-85
2022/12/10 05:43:09;;;;;;;16.08;9.10;;;;;;;;;;5063714;28;20097;-84
2022/12/10 05:45:35;;;;;;;16.92;9.38;;;;;;;;;;5065021;28;20029;-84
2022/12/10 05:48:01;;;;;;;19.85;9.98;;;;;;;;;;5062534;28;20119;-84
2022/12/10 05:50:27;;;;;;;20.67;8.75;;;;;;;;;;5069029;28;20534;-84
2022/12/10 05:52:53;;;;;;;19.42;10.50;;;;;;;;;;5062145;28;20033;-83
2022/12/10 05:55:19;;;;;;;19.98;8.85;;;;;;;;;;5063439;28;20082;-84
2022/12/10 05:57:45;;;;;;;16.92;9.10;;;;;;;;;;5068702;28;20388;-83
2022/12/10 06:00:11;;;;;;;19.98;9.98;;;;;;;;;;5065949;28;20193;-83
2022/12/10 06:02:37;;;;;;;15.93;9.23;;;;;;;;;;5056413;28;20112;-83
2022/12/10 06:05:03;;;;;;;14.43;8.48;;;;;;;;;;5072355;28;20468;-83
2022/12/10 06:07:30;;;;;;;18.05;9.23;;;;;;;;;;5069620;28;20028;-84
2022/12/10 06:09:56;;;;;;;16.17;8.85;;;;;;;;;;5063308;28;20016;-84
2022/12/10 06:12:22;;;;;;;26.10;10.88;;;;;;;;;;5060201;28;20028;-85
2022/12/10 06:14:48;;;;;;;19.77;8.50;;;;;;;;;;5068337;28;20017;-83
2022/12/10 06:17:14;;;;;;;20.63;9.77;;;;;;;;;;5059257;28;20115;-84
2022/12/10 06:19:40;;;;;;;20.13;8.77;;;;;;;;;;5063758;28;20119;-83
2022/12/10 06:22:06;;;;;;;16.77;8.38;;;;;;;;;;5056263;28;20036;-85
2022/12/10 06:24:32;;;;;;;19.95;10.45;;;;;;;;;;5060322;28;20598;-82
2022/12/10 06:26:58;;;;;;;14.38;7.32;;;;;;;;;;5070724;28;20051;-82
2022/12/10 06:29:24;;;;;;;21.95;10.43;;;;;;;;;;5061013;28;20021;-85
2022/12/10 06:31:50;;;;;;;25.63;9.05;;;;;;;;;;5060718;28;20546;-85
2022/12/10 06:34:15;;;;;;;15.65;9.07;;;0.40;99.90;;;;;;5065705;28;20090;-83
2022/12/10 06:36:41;;;;;;;18.52;10.02;;;;;;;;;;5066176;28;20053;-83
2022/12/10 06:39:07;;;;;;;21.92;10.52;;;;;;;;;;5057870;28;20025;-83
2022/12/10 06:41:33;;;;;;;16.83;8.85;;;;;;;;;;5062724;28;20032;-83
2022/12/10 06:43:59;;;;;;;22.35;9.35;;;;;;;;;;5061427;28;20222;-84
2022/12/10 06:46:27;;;;;;;21.02;9.65;;;;;;;;;;5063495;28;20109;-84
2022/12/10 06:48:53;;;;;;;21.15;8.32;;;;;;;;;;5061705;28;20047;-85
2022/12/10 06:51:19;;;;;;;24.00;10.13;;;;;;;;;;5059760;28;20025;-85
2022/12/10 06:53:46;;;;;;;20.42;9.85;;;0.30;99.90;;;;;;5060014;28;20032;-83
2022/12/10 06:56:13;;;;;;;17.45;8.38;;;;;;;;;;5062264;28;20029;-85
2022/12/10 06:58:40;;;;;;;14.63;9.00;;;;;;;;;;5062184;28;20058;-82
2022/12/10 07:01:07;;;;;;;21.75;9.75;;;;;;;;;;5060060;28;20033;-84
2022/12/10 07:03:33;;;;;;;17.33;8.52;;;;;;;;;;5067391;28;20043;-84
2022/12/10 07:06:00;;;;;;;19.30;8.82;;;;;;;;;;5065064;28;20029;-83
2022/12/10 07:08:26;;;;;;;17.67;9.60;;;;;;;;;;5050799;28;20131;-84
2022/12/10 07:10:52;;;;;;;19.50;10.70;;;;;;;;;;5067296;28;20044;-83
2022/12/10 07:13:19;;;;;;;19.17;9.45;;;;;;;;;;5063107;28;20095;-83
2022/12/10 07:15:45;;;;;;;18.30;8.32;;;;;;;;;;5062776;28;20029;-84
2022/12/10 07:18:11;;;;;;;18.05;9.95;;;;;;;;;;5063768;28;20441;-84
2022/12/10 07:20:37;;;;;;;25.40;10.75;;;;;;;;;;5059589;28;20037;-81
2022/12/10 07:23:03;;;;;;;15.95;9.43;;;;;;;;;;5063718;28;20092;-82
2022/12/10 07:25:30;;;;;;;18.45;9.95;;;;;;;;;;5062802;28;20051;-83
2022/12/10 07:27:55;;;;;;;26.05;10.38;;;;;;;;;;5059919;28;20474;-84
2022/12/10 07:30:21;;;;;;;15.63;9.50;;;;;;;;;;5063040;28;20033;-82
2022/12/10 07:32:47;;;;;;;19.08;10.38;;;;;;;;;;5062615;28;20040;-81
2022/12/10 07:35:13;;;;;;;19.50;10.52;;;;;;;;;;5065622;28;20032;-82
2022/12/10 07:37:39;;;;;;;20.55;10.32;;;;;;;;;;5059223;28;20052;-81
2022/12/10 07:40:05;;;;;;;18.38;9.80;;;;;;;;;;5063090;28;20093;-81
2022/12/10 07:42:31;;;;;;;25.27;10.48;;;;;;;;;;5065402;28;20013;-81
2022/12/10 07:44:57;;;;;;;15.88;9.15;;;;;;;;;;5063451;28;20094;-82
2022/12/10 07:47:23;;;;;;;25.13;11.40;;;;;;;;;;5065531;28;20048;-83
2022/12/10 07:49:49;;;;;;;29.05;12.40;;;;;;;;;;5067486;28;21729;-84
2022/12/10 07:52:15;;;;;;;25.48;12.25;;;;;;;;;;5070242;28;20035;-84
2022/12/10 07:54:41;;;;;;;26.35;10.25;;;;;;;;;;5062346;28;20021;-84
2022/12/10 07:57:07;;;;;;;19.63;11.18;;;;;;;;;;5060633;28;20552;-82
2022/12/10 07:59:33;;;;;;;20.38;9.02;;;;;;;;;;5065156;28;20997;-83
2022/12/10 08:01:59;;;;;;;21.00;11.35;;;;;;;;;;5071005;28;20398;-81
2022/12/10 08:04:29;;;;;;;25.00;12.20;;;0.50;99.90;;;;;;5068127;28;20016;-83
2022/12/10 08:06:55;;;;;;;25.95;10.98;;;0.80;99.90;;;;;;5070923;28;20048;-84
2022/12/10 08:09:21;;;;;;;18.23;9.38;;;;;;;;;;5068261;28;20055;-83
2022/12/10 08:11:47;;;;;;;22.98;11.40;;;;;;;;;;5068148;28;20033;-83
2022/12/10 08:14:13;;;;;;;27.75;12.25;;;;;;;;;;5061879;28;20055;-82
2022/12/10 08:16:39;;;;;;;29.23;12.60;;;;;;;;;;5066309;28;20025;-83
2022/12/10 08:19:05;;;;;;;24.70;12.40;;;;;;;;;;5067235;28;20354;-83
2022/12/10 08:21:32;;;;;;;19.95;10.05;;;;;;;;;;5064609;28;20124;-84
2022/12/10 08:23:58;;;;;;;25.73;10.40;;;;;;;;;;5056863;28;20466;-84
2022/12/10 08:26:26;;;;;;;18.65;9.45;;;;;;;;;;5061440;28;20054;-83
2022/12/10 08:28:52;;;;;;;20.17;10.23;;;;;;;;;;5056124;28;20036;-84
2022/12/10 08:31:19;;;;;;;20.88;10.20;;;;;;;;;;5060130;28;20028;-85
2022/12/10 08:33:45;;;;;;;20.13;10.57;;;;;;;;;;5062345;28;20040;-83
2022/12/10 08:36:13;;;;;;;23.05;10.52;;;1.30;99.90;;;;;;5054507;28;20116;-88
2022/12/10 08:38:39;;;;;;;23.08;10.45;;;;;;;;;;5071010;28;20636;-84
2022/12/10 08:41:10;;;;;;;16.80;9.07;;;;;;;;;;5076549;28;20032;-84
2022/12/10 08:43:36;;;;;;;23.23;10.40;;;;;;;;;;5074623;28;20092;-81
2022/12/10 08:46:02;;;;;;;24.67;10.90;;;;;;;;;;5065293;28;20146;-81
2022/12/10 08:48:28;;;;;;;22.30;9.60;;;;;;;;;;5062795;28;20408;-83
2022/12/10 08:50:53;;;;;;;17.88;10.07;;;1.70;99.90;;;;;;5061413;28;20051;-81
2022/12/10 08:53:19;;;;;;;23.23;11.35;;;;;;;;;;5059046;28;20468;-81
2022/12/10 08:55:52;;;;;;;18.20;9.93;;;2.40;99.90;;;;;;5062507;28;20017;-81
2022/12/10 08:58:18;;;;;;;;;;;;;;;;;;5057633;28;20021;-81
2022/12/10 09:00:45;;;;;;;20.55;8.98;;;;;;;;;;5059982;28;19916;-81
2022/12/10 09:03:11;;;;;;;23.30;10.02;;;;;;;;;;5058221;28;20042;-81
2022/12/10 09:05:37;;;;;;;23.20;10.85;;;;;;;;;;5060882;28;20029;-81
2022/12/10 09:08:04;;;;;;;23.02;10.02;;;;;;;;;;5065693;28;20082;-81
2022/12/10 09:10:30;;;;;;;23.83;13.25;;;;;;;;;;5065362;28;20055;-81
2022/12/10 09:12:56;;;;;;;29.42;12.27;;;;;;;;;;5065387;28;20016;-81
2022/12/10 09:15:21;;;;;;;21.73;10.38;;;2.50;99.90;;;;;;5064790;28;20048;-84
2022/12/10 09:17:47;;;;;;;23.77;10.65;;;2.80;99.90;;;;;;5070883;28;20238;-81
2022/12/10 09:20:13;;;;;;;21.85;9.93;;;;;;;;;;5063513;28;20027;-84
2022/12/10 09:22:39;;;;;;;20.80;9.38;;;;;;;;;;5058162;28;20545;-82
2022/12/10 09:25:06;;;;;;;15.55;8.50;;;;;;;;;;5063622;28;20113;-83
2022/12/10 09:27:32;;;;;;;19.40;8.68;;;;;;;;;;5061089;28;20037;-82
2022/12/10 09:29:58;;;;;;;23.85;10.98;;;;;;;;;;5065805;28;20488;-83
2022/12/10 09:32:24;;;;;;;23.85;9.93;;;;;;;;;;5067994;28;20149;-83
2022/12/10 09:34:53;;;;;;;21.13;9.73;;;2.10;99.90;;;;;;5071929;28;20511;-85
2022/12/10 09:37:19;;;;;;;21.52;11.82;;;;;;;;;;5068067;28;20036;-81
2022/12/10 09:39:45;;;;;;;19.98;10.63;;;;;;;;;;5055431;28;20024;-83
2022/12/10 09:42:30;;;;;;;24.63;14.10;;;;;;;;;;5060553;28;20021;-84
2022/12/10 09:45:16;;;;;;;21.38;9.93;;;2.30;99.90;;;;;;5056738;28;20032;-82
2022/12/10 09:47:49;;;;;;;25.00;10.05;;;;;;;;;;5065361;28;20071;-85
2022/12/10 09:50:28;;;;;;;20.85;9.85;;;;;;;;;;5060420;28;20031;-85
2022/12/10 09:52:57;;;;;;;19.88;10.55;;;;;;;;;;5061839;28;20078;-83
2022/12/10 09:55:28;;;;;;;20.00;9.50;;;;;;;;;;5064184;28;20411;-82
2022/12/10 09:57:54;;;;;;;25.92;9.88;;;;;;;;;;5064840;28;20066;-86
2022/12/10 10:00:25;;;;;;;20.85;8.77;;;;;;;;;;5065823;28;20121;-82
2022/12/10 10:02:52;;;;;;;17.05;9.75;;;;;;;;;;5068279;28;20021;-86
2022/12/10 10:05:18;;;;;;;24.52;11.00;;;;;;;;;;5066349;28;20036;-83
2022/12/10 10:07:54;;;;;;;21.25;9.95;;;;;;;;;;5061804;28;20690;-82
2022/12/10 10:10:39;;;;;;;20.75;11.38;;;;;;;;;;5066094;28;20051;-82
2022/12/10 10:13:08;;;;;;;22.65;11.45;;;;;;;;;;5063841;28;20071;-81
2022/12/10 10:15:38;;;;;;;20.42;10.20;;;;;;;;;;5065214;28;20100;-84
2022/12/10 10:18:09;;;;;;;22.00;9.85;;;;;;;;;;5066186;28;20033;-81
2022/12/10 10:20:36;;;;;;;25.38;10.82;;;;;;;;;;5061544;28;20028;-84
2022/12/10 10:23:02;;;;;;;17.33;10.05;;;;;;;;;;5062033;28;21349;-84
2022/12/10 10:25:28;;;;;;;23.55;9.65;;;;;;;;;;5064986;28;20633;-84
2022/12/10 10:27:55;;;;;;;21.75;10.25;;;;;;;;;;5057540;28;20040;-86
2022/12/10 10:30:22;;;;;;;16.63;8.57;;;;;;;;;;5062500;28;20033;-82
2022/12/10 10:32:51;;;;;;;18.55;8.90;;;;;;;;;;5064844;28;20029;-82
2022/12/10 10:35:34;;;;;;;19.40;9.57;;;;;;;;;;5065245;28;20020;-82
2022/12/10 10:38:04;;;;;;;16.77;9.40;;;2.20;99.90;;;;;;5061367;28;20514;-82
2022/12/10 10:40:33;;;;;;;18.77;9.18;;;;;;;;;;5062642;28;20029;-82
2022/12/10 10:43:00;;;;;;;18.67;8.40;;;;;;;;;;5063684;28;20039;-83
2022/12/10 10:45:37;;;;;;;18.55;8.55;;;;;;;;;;5061129;28;20772;-85
2022/12/10 10:48:24;;;;;;;16.92;10.15;;;2.20;99.90;;;;;;5059018;28;20056;-84
2022/12/10 10:50:51;;;;;;;27.10;13.07;;;;;;;;;;5060633;28;20397;-84
2022/12/10 10:53:43;;;;;;;15.43;8.88;;;;;;;;;;5061247;28;20178;-85
2022/12/10 10:56:18;;;;;;;15.15;7.82;;;2.40;99.90;;;;;;5062384;28;20504;-83
2022/12/10 10:58:58;;;;;;;18.83;9.27;;;;;;;;;;5058770;28;20046;-81
2022/12/10 11:01:26;;;;;;;16.73;7.90;;;;;;;;;;5063482;28;20281;-84
2022/12/10 11:03:57;;;;;;;16.25;7.68;;;;;;;;;;5056371;28;20029;-81
2022/12/10 11:06:23;;;;;;;20.70;8.98;;;;;;;;;;5061071;28;20041;-81
2022/12/10 11:08:57;;;;;;;16.70;9.35;;;;;;;;;;5062464;28;20040;-81
2022/12/10 11:11:40;;;;;;;17.42;8.35;;;2.90;99.90;;;;;;5062758;28;20032;-81
2022/12/10 11:14:15;;;;;;;25.25;14.10;;;;;;;;;;5063031;28;20032;-81
2022/12/10 11:16:41;;;;;;;16.48;8.48;;;;;;;;;;5058930;28;20052;-83
2022/12/10 11:19:19;;;;;;;19.15;8.70;;;;;;;;;;5065089;28;20443;-81
2022/12/10 11:21:45;;;;;;;16.35;7.13;;;;;;;;;;5058916;28;20040;-82
2022/12/10 11:24:12;;;;;;;16.60;9.05;;;2.40;99.90;;;;;;5053721;28;20167;-82
2022/12/10 11:26:44;;;;;;;17.27;9.10;;;;;;;;;;5057944;28;20056;-83
2022/12/10 11:29:13;;;;;;;15.38;8.93;;;;;;;;;;5059809;28;20395;-82
2022/12/10 11:32:01;;;;;;;15.63;7.85;;;2.40;99.90;;;;;;5053077;28;22111;-83
2022/12/10 11:34:47;;;;;;;13.88;6.82;;;3.50;99.90;;;;;;5060044;28;20064;-81
2022/12/10 11:37:13;;;;;;;17.45;7.57;;;;;;;;;;5050101;28;20029;-82
2022/12/10 11:40:00;;;;;;;16.13;9.55;;;3.60;99.90;;;;;;5058519;28;20095;-81
2022/12/10 11:42:26;;;;;;;12.63;6.28;;;;;;;;;;5059174;28;20035;-80
2022/12/10 11:45:00;;;;;;;15.07;8.07;;;;;;;;;;5066644;28;20571;-82
2022/12/10 11:47:47;;;;;;;21.42;8.13;;;;;;;;;;5065008;28;20120;-83
2022/12/10 11:50:16;;;;;;;14.63;7.95;;;;;;;;;;5060097;28;20050;-82
2022/12/10 11:53:21;;;;;;;17.38;7.93;;;2.60;99.90;;;;;;5057444;28;20139;-81
2022/12/10 11:56:10;;;;;;;12.40;6.95;;;;;;;;;;5058307;28;20033;-81
2022/12/10 11:58:45;;;;;;;19.75;8.25;;;;;;;;;;5055204;28;20104;-82
2022/12/10 12:01:30;;;;;;;20.88;8.38;;;;;;;;;;5052158;28;20484;-83
2022/12/10 12:04:05;;;;;;;17.77;7.03;;;;;;;;;;5039845;28;20032;-84
2022/12/10 12:06:46;;;;;;;27.65;7.57;;;;;;;;;;5062513;28;20035;-84
2022/12/10 12:09:55;;;;;;;15.38;7.57;;;3.50;99.90;;;;;;5052681;28;20040;-82
2022/12/10 12:12:30;;;;;;;18.48;8.25;;;;;;;;;;5054690;28;20024;-82
2022/12/10 12:14:59;;;;;;;12.25;6.85;;;;;;;;;;5061186;28;20040;-81
2022/12/10 12:17:31;;;;;;;19.48;10.02;;;;;;;;;;5056717;28;20024;-82
2022/12/10 12:20:02;;;;;;;18.83;7.75;;;3.40;99.90;;;;;;5052870;28;20056;-84
2022/12/10 12:22:30;;;;;;;13.10;7.28;;;;;;;;;;5058979;28;20016;-83
2022/12/10 12:25:08;;;;;;;15.05;7.05;;;2.80;99.90;;;;;;5056087;28;20024;-82
2022/12/10 12:27:41;;;;;;;23.33;9.63;;;;;;;;;;5061128;28;20075;-82
2022/12/10 12:30:15;;;;;;;25.55;8.40;;;;;;;;;;5060483;28;20076;-83
2022/12/10 12:32:47;;;;;;;19.63;8.57;;;;;;;;;;5062809;28;20028;-82
2022/12/10 12:35:17;;;;;;;12.35;7.18;;;;;;;;;;5059124;28;20029;-82
2022/12/10 12:37:48;;;;;;;15.75;8.60;;;;;;;;;;5055319;28;20116;-82
2022/12/10 12:40:21;;;;;;;15.90;8.85;;;;;;;;;;5054282;28;20116;-83
2022/12/10 12:42:49;;;;;;;13.55;6.75;;;;;;;;;;5057884;28;20759;-81
2022/12/10 12:45:19;;;;;;;18.00;8.57;;;;;;;;;;5061269;28;20495;-83
2022/12/10 12:47:57;;;;;;;17.38;7.55;;;;;;;;;;5057008;28;20082;-81
2022/12/10 12:50:23;;;;;;;19.88;8.68;;;;;;;;;;5059596;28;20044;-83
2022/12/10 12:52:54;;;;;;;24.45;9.93;;;;;;;;;;5052873;28;20706;-82
2022/12/10 12:55:20;;;;;;;25.80;10.40;;;;;;;;;;5059443;28;20035;-83
2022/12/10 12:57:50;;;;;;;16.00;8.93;;;;;;;;;;5056956;28;20028;-84
2022/12/10 13:00:18;;;;;;;20.60;9.38;;;;;;;;;;5056474;28;20048;-83
2022/12/10 13:02:46;;;;;;;18.42;9.32;;;;;;;;;;5061146;28;20457;-85
2022/12/10 13:05:18;;;;;;;21.30;10.00;;;;;;;;;;5059965;28;20028;-84
2022/12/10 13:07:45;;;;;;;25.25;9.05;;;;;;;;;;5065052;28;20085;-84
2022/12/10 13:10:14;;;;;;;17.20;8.52;;;;;;;;;;5066880;28;20040;-84
2022/12/10 13:12:41;;;;;;;19.25;8.63;;;;;;;;;;5058652;28;20033;-84
2022/12/10 13:15:25;;;;;;;19.63;8.15;;;;;;;;;;5058494;28;20621;-83
2022/12/10 13:18:04;;;;;;;19.17;9.07;;;;;;;;;;5058445;28;20713;-83
2022/12/10 13:20:31;;;;;;;22.33;8.00;;;;;;;;;;5054746;28;20730;-82
2022/12/10 13:23:01;;;;;;;21.90;10.98;;;;;;;;;;5056842;28;20028;-81
2022/12/10 13:25:47;;;;;;;17.88;8.55;;;;;;;;;;5064045;28;20040;-84
2022/12/10 13:28:36;;;;;;;19.92;9.27;;;;;;;;;;5059972;28;20059;-83
2022/12/10 13:31:17;;;;;;;13.30;7.63;;;;;;;;;;5053429;28;21028;-82
2022/12/10 13:34:01;;;;;;;17.27;6.93;;;;;;;;;;5053805;28;20029;-83
2022/12/10 13:36:34;;;;;;;44.22;23.38;;;;;;;;;;5071419;28;20040;-83
2022/12/10 13:39:00;;;;;;;;;;;;;;;;;;5062768;28;20074;-83
2022/12/10 13:44:49;;;;;;;18.48;8.90;;;2.20;99.90;;;;;;5064875;28;20128;-82
2022/12/10 13:47:29;;;;;;;20.33;10.57;;;;;;;;;;5067920;28;20488;-84
2022/12/10 13:49:59;;;;;;;16.85;8.80;;;;;;;;;;5066197;28;20032;-84
2022/12/10 13:52:54;;;;;;;18.40;9.55;;;2.20;99.90;;;;;;5070352;28;20105;-83
2022/12/10 13:55:26;;;;;;;18.67;8.95;;;;;;;;;;5071583;28;20711;-83
2022/12/10 13:57:53;;;;;;;22.02;7.93;;;;;;;;;;5065972;28;20119;-84
2022/12/10 14:00:27;;;;;;;19.67;7.43;;;;;;;;;;5068038;28;20384;-83
2022/12/10 14:03:05;;;;;;;33.17;10.43;;;;;;;;;;5062957;28;20032;-84
2022/12/10 14:05:50;;;;;;;18.42;9.55;;;;;;;;;;5073866;28;20032;-84
2022/12/10 14:08:22;;;;;;;15.23;6.38;;;;;;;;;;5075878;28;20052;-81
2022/12/10 14:10:48;;;;;;;18.20;8.88;;;;;;;;;;5086913;28;20032;-81
2022/12/10 14:13:19;;;;;;;12.82;7.30;;;2.40;99.90;;;;;;5089355;28;20029;-82
2022/12/10 14:15:54;;;;;;;18.80;8.02;;;;;;;;;;5078413;28;20020;-83
2022/12/10 14:18:20;;;;;;;21.48;8.73;;;;;;;;;;5067523;28;20039;-82
2022/12/10 14:20:47;;;;;;;20.88;9.63;;;;;;;;;;5058947;28;20025;-83
2022/12/10 14:23:33;;;;;;;20.05;8.10;;;;;;;;;;5066185;28;20021;-82
2022/12/10 14:26:14;;;;;;;23.73;8.90;;;;;;;;;;5061876;28;20036;-81
2022/12/10 14:28:45;;;;;;;21.92;8.35;;;;;;;;;;5060648;28;20033;-82
2022/12/10 14:31:14;;;;;;;20.23;9.93;;;;;;;;;;5069394;28;20025;-83
2022/12/10 14:33:40;;;;;;;19.23;8.00;;;;;;;;;;5067057;28;20039;-82
2022/12/10 14:36:06;;;;;;;15.15;7.93;;;;;;;;;;5063905;28;20029;-81
2022/12/10 14:38:34;;;;;;;17.23;7.55;;;3.10;99.90;;;;;;5061098;28;20107;-81